Time;durP1;ratioP1;P1;durP2;ratioP2;P2;SDS_P1;SDS_P2;PMS_P1;PMS_P2;Temp;Humidity;BMP_temperature;BMP_pressure;BME280_temperature;BME280_humidity;BME280_pressure;Samples;Min_cycle;Max_cycle;Signal;HPM_P1;HPM_P2
2023/09/16 00:01:17;;;;;;;;;10.00;9.00;;;;;17.60;66.72;101472.09;5010950;28;9668;-68
2023/09/16 00:03:44;;;;;;;;;11.00;11.00;;;;;17.60;66.58;101467.47;4993069;28;8928;-67
2023/09/16 00:06:12;;;;;;;;;8.67;8.67;;;;;17.60;66.42;101453.03;4993030;28;9065;-67
2023/09/16 00:08:43;;;;;;;;;6.33;6.33;;;;;17.61;66.43;101452.78;5010605;28;9070;-70
2023/09/16 00:11:10;;;;;;;;;14.33;12.33;;;;;17.59;66.58;101454.94;5010932;28;8947;-69
2023/09/16 00:13:37;;;;;;;;;7.67;7.67;;;;;17.58;66.52;101458.69;5009747;28;9088;-69
2023/09/16 00:16:04;;;;;;;;;9.00;7.33;;;;;17.58;66.42;101452.41;5009267;28;8943;-69
2023/09/16 00:18:31;;;;;;;;;8.67;7.67;;;;;17.55;66.36;101457.28;4992825;28;9656;-69
2023/09/16 00:20:58;;;;;;;;;11.33;9.67;;;;;17.55;66.97;101461.88;5010778;28;9006;-69
2023/09/16 00:23:24;;;;;;;;;7.00;7.00;;;;;17.52;66.37;101452.25;5009238;28;9015;-69
2023/09/16 00:25:52;;;;;;;;;9.50;9.00;;;;;17.51;66.56;101456.06;5011049;28;9004;-69
2023/09/16 00:28:18;;;;;;;;;7.67;7.67;;;;;17.50;66.52;101454.41;5010230;28;8831;-69
2023/09/16 00:30:45;;;;;;;;;11.33;9.00;;;;;17.47;66.36;101445.84;4992839;28;9000;-69
2023/09/16 00:33:12;;;;;;;;;9.00;9.00;;;;;17.48;66.64;101450.22;5010697;28;9339;-68
2023/09/16 00:35:38;;;;;;;;;10.25;10.25;;;;;17.47;66.59;101443.13;4992658;28;8925;-69
2023/09/16 00:38:05;;;;;;;;;12.33;11.33;;;;;17.45;66.78;101448.78;4992334;28;8905;-69
2023/09/16 00:40:32;;;;;;;;;10.00;7.00;;;;;17.44;66.65;101438.94;4992526;28;9729;-69
2023/09/16 00:42:58;;;;;;;;;9.25;7.50;;;;;17.42;66.90;101438.34;4992675;28;9289;-69
2023/09/16 00:45:25;;;;;;;;;13.67;9.33;;;;;17.39;67.18;101438.81;4992540;28;8823;-69
2023/09/16 00:47:51;;;;;;;;;10.67;8.00;;;;;17.38;66.96;101436.28;5009988;28;8971;-70
2023/09/16 00:50:18;;;;;;;;;11.33;10.00;;;;;17.38;66.92;101439.00;5009386;28;9061;-70
2023/09/16 00:52:52;;;;;;;;;10.00;10.00;;;;;17.37;67.30;101432.72;5009963;28;9110;-70
2023/09/16 00:55:19;;;;;;;;;9.67;9.00;;;;;17.35;67.34;101440.31;4992472;28;8905;-70
2023/09/16 00:57:48;;;;;;;;;9.33;9.33;;;;;17.35;67.10;101428.59;4991985;28;9036;-70
2023/09/16 01:00:16;;;;;;;;;10.00;10.00;;;;;17.33;67.41;101436.97;4992825;28;9793;-70
2023/09/16 01:02:44;;;;;;;;;11.33;9.00;;;;;17.29;67.64;101428.41;4992713;28;8918;-70
2023/09/16 01:05:14;;;;;;;;;10.67;9.00;;;;;17.28;67.54;101429.47;5009989;28;9815;-70
2023/09/16 01:07:42;;;;;;;;;10.33;9.00;;;;;17.26;67.57;101431.59;5009511;28;9001;-70
2023/09/16 01:10:11;;;;;;;;;8.33;8.00;;;;;17.24;68.07;101427.44;4992490;28;9031;-70
2023/09/16 01:12:38;;;;;;;;;11.33;10.67;;;;;17.24;68.22;101433.69;5009967;28;9022;-70
2023/09/16 01:15:07;;;;;;;;;9.33;9.00;;;;;17.24;68.18;101436.41;4992160;28;8941;-70
2023/09/16 01:17:36;;;;;;;;;12.00;11.00;;;;;17.23;68.09;101434.75;4992031;28;9071;-70
2023/09/16 01:20:11;;;;;;;;;12.67;9.00;;;;;17.23;68.18;101434.75;4992212;28;9282;-70
2023/09/16 01:22:44;;;;;;;;;7.33;7.33;;;;;17.21;68.18;101439.59;4992336;28;8985;-70
2023/09/16 01:25:13;;;;;;;;;9.33;9.33;;;;;17.21;68.25;101434.13;4972654;28;9100;-69
2023/09/16 01:27:39;;;;;;;;;10.00;9.00;;;;;17.21;67.89;101436.84;4973663;28;10179;-69
2023/09/16 01:30:07;;;;;;;;;10.33;8.33;;;;;17.21;67.98;101436.84;4992111;28;9087;-69
2023/09/16 01:32:53;;;;;;;;;9.33;9.33;;;;;17.20;67.83;101432.50;4992143;28;9647;-69
2023/09/16 01:35:21;;;;;;;;;8.33;8.33;;;;;17.22;67.58;101435.00;5008505;28;9073;-69
2023/09/16 01:37:50;;;;;;;;;6.75;6.75;;;;;17.22;67.71;101435.81;4991651;28;8995;-70
2023/09/16 01:40:20;;;;;;;;;7.00;7.00;;;;;17.22;67.57;101441.28;4991746;28;8843;-68
2023/09/16 01:42:47;;;;;;;;;8.67;8.67;;;;;17.20;67.51;101432.50;5009878;28;8998;-69
2023/09/16 01:45:14;;;;;;;;;12.00;9.00;;;;;17.21;67.77;101431.41;5009711;28;9019;-69
2023/09/16 01:47:41;;;;;;;;;8.00;8.00;;;;;17.21;67.68;101425.97;4991954;28;9059;-70
2023/09/16 01:50:08;;;;;;;;;9.00;8.00;;;;;17.20;67.92;101428.94;4992160;28;8964;-69
2023/09/16 01:52:35;;;;;;;;;9.67;8.33;;;;;17.19;67.69;101425.38;4991956;28;9003;-69
2023/09/16 01:55:01;;;;;;;;;7.00;7.00;;;;;17.18;67.87;101423.72;4991940;28;9237;-70
2023/09/16 01:57:29;;;;;;;;;8.33;7.00;;;;;17.16;67.81;101419.56;4991853;28;8941;-70
2023/09/16 01:59:55;;;;;;;;;6.67;6.67;;;;;17.13;67.90;101420.00;4991855;28;9128;-70
2023/09/16 02:02:22;;;;;;;;;10.00;10.00;;;;;17.09;68.45;101425.03;5011503;28;9810;-70
2023/09/16 02:04:49;;;;;;;;;15.00;12.00;;;;;17.04;68.37;101423.00;5013063;28;9787;-70
2023/09/16 02:07:15;;;;;;;;;15.00;11.00;;;;;16.99;68.36;101422.84;4995607;28;9226;-70
2023/09/16 02:09:43;;;;;;;;;8.00;8.00;;;;;16.97;68.74;101427.66;4995613;28;9233;-69
2023/09/16 02:12:10;;;;;;;;;8.33;8.33;;;;;16.96;68.62;101419.72;4979428;28;9192;-70
2023/09/16 02:14:38;;;;;;;;;10.00;10.00;;;;;16.93;68.92;101417.44;4995298;28;9196;-69
2023/09/16 02:17:09;;;;;;;;;9.00;8.33;;;;;16.93;69.01;101422.88;4995399;28;9006;-70
2023/09/16 02:19:36;;;;;;;;;8.00;8.00;;;;;16.90;69.03;101426.06;4995601;28;8996;-70
2023/09/16 02:22:07;;;;;;;;;10.00;9.33;;;;;16.88;69.48;101423.56;4995593;28;9242;-70
2023/09/16 02:24:34;;;;;;;;;9.00;8.67;;;;;16.88;69.38;101426.28;4995563;28;9019;-70
2023/09/16 02:27:00;;;;;;;;;9.67;8.67;;;;;16.86;69.30;101417.53;4995131;28;9105;-70
2023/09/16 02:29:29;;;;;;;;;10.00;8.33;;;;;16.87;69.33;101426.50;5013054;28;9773;-70
2023/09/16 02:31:55;;;;;;;;;10.00;9.67;;;;;16.88;69.32;101422.72;4995600;28;9174;-70
2023/09/16 02:34:22;;;;;;;;;12.67;8.00;;;;;16.88;69.62;101417.28;4995504;28;9086;-70
2023/09/16 02:36:48;;;;;;;;;9.00;8.33;;;;;16.87;69.48;101429.22;4995373;28;8992;-70
2023/09/16 02:39:17;;;;;;;;;13.00;10.00;;;;;16.85;69.54;101424.00;5011727;28;9104;-70
2023/09/16 02:41:43;;;;;;;;;9.33;9.33;;;;;16.82;69.35;101427.19;4995367;28;9149;-70
2023/09/16 02:44:10;;;;;;;;;10.00;10.00;;;;;16.77;69.95;101425.13;4994960;28;9086;-70
2023/09/16 02:46:36;;;;;;;;;11.33;8.67;;;;;16.73;70.03;101429.34;4978917;28;9798;-69
2023/09/16 02:49:03;;;;;;;;;8.33;7.33;;;;;16.72;69.97;101418.63;5012867;28;9226;-69
2023/09/16 02:51:32;;;;;;;;;12.00;11.00;;;;;16.72;69.91;101426.78;4995248;28;9162;-69
2023/09/16 02:54:00;;;;;;;;;11.00;11.00;;;;;16.72;70.14;101426.78;4995199;28;9168;-69
2023/09/16 02:56:27;;;;;;;;;8.00;8.00;;;;;16.72;69.82;101422.19;4994944;28;9235;-70
2023/09/16 02:58:54;;;;;;;;;12.33;11.00;;;;;16.69;69.88;101419.94;5012231;28;9175;-69
2023/09/16 03:01:21;;;;;;;;;12.00;11.33;;;;;16.68;69.95;101422.84;4995122;28;9850;-70
2023/09/16 03:03:48;;;;;;;;;10.33;10.33;;;;;16.66;70.27;101414.09;4994727;28;9308;-70
2023/09/16 03:06:14;;;;;;;;;11.67;11.33;;;;;16.64;70.41;101417.03;4994649;28;9836;-69
2023/09/16 03:08:41;;;;;;;;;11.00;8.33;;;;;16.64;70.18;101416.19;5012123;28;9301;-70
2023/09/16 03:11:09;;;;;;;;;12.00;12.00;;;;;16.62;70.42;101412.88;4994825;28;9007;-70
2023/09/16 03:13:36;;;;;;;;;10.33;10.00;;;;;16.60;70.61;101410.34;4993926;28;9160;-70
2023/09/16 03:16:21;;;;;;;;;9.33;9.33;;;;;16.59;70.64;101410.59;4994578;28;9234;-70
2023/09/16 03:18:52;;;;;;;;;13.33;10.67;;;;;16.56;70.58;101407.25;4979353;28;9068;-70
2023/09/16 03:21:23;;;;;;;;;10.00;9.00;;;;;16.54;70.72;101408.53;4994499;28;9168;-70
2023/09/16 03:23:53;;;;;;;;;11.67;11.67;;;;;16.53;70.81;101410.44;4994518;28;9266;-69
2023/09/16 03:26:20;;;;;;;;;8.67;8.67;;;;;16.52;70.91;101407.91;4994472;28;9069;-70
2023/09/16 03:28:53;;;;;;;;;10.67;10.67;;;;;16.51;70.71;101406.25;4994408;28;10014;-70
2023/09/16 03:31:24;;;;;;;;;17.00;12.00;;;;;16.48;71.47;101404.78;5012073;28;9054;-70
2023/09/16 03:33:52;;;;;;;;;10.00;9.67;;;;;16.47;71.28;101405.84;4994180;28;9220;-69
2023/09/16 03:36:19;;;;;;;;;12.33;10.00;;;;;16.47;71.13;101397.69;4993798;28;9172;-69
2023/09/16 03:38:49;;;;;;;;;10.67;10.00;;;;;16.47;71.34;101405.03;4994140;28;9077;-70
2023/09/16 03:41:17;;;;;;;;;14.00;11.00;;;;;16.45;71.32;101396.28;4994219;28;9074;-70
2023/09/16 03:43:51;;;;;;;;;9.33;8.33;;;;;16.44;71.25;101391.88;4994131;28;9185;-70
2023/09/16 03:46:20;;;;;;;;;11.33;9.33;;;;;16.42;71.47;101396.72;4993961;28;9167;-70
2023/09/16 03:48:47;;;;;;;;;10.33;9.67;;;;;16.42;71.80;101394.00;4993788;28;9305;-70
2023/09/16 03:51:14;;;;;;;;;12.00;12.00;;;;;16.42;71.51;101394.00;4993893;28;9237;-70
2023/09/16 03:53:41;;;;;;;;;12.67;12.00;;;;;16.41;71.64;101395.03;4993965;28;9306;-70
2023/09/16 03:56:08;;;;;;;;;9.33;9.00;;;;;16.42;72.01;101394.81;5011107;28;9238;-69
2023/09/16 03:58:36;;;;;;;;;11.33;11.00;;;;;16.42;71.91;101385.84;4993959;28;9162;-70
2023/09/16 04:01:03;;;;;;;;;10.67;10.67;;;;;16.43;71.53;101390.22;4993909;28;9817;-70
2023/09/16 04:03:31;;;;;;;;;9.33;8.00;;;;;16.45;71.67;101379.97;4977738;28;9308;-70
2023/09/16 04:06:01;;;;;;;;;9.33;7.67;;;;;16.45;71.90;101382.69;5011192;28;9114;-69
2023/09/16 04:08:28;;;;;;;;;10.00;8.33;;;;;16.46;71.85;101384.34;4993537;28;9184;-71
2023/09/16 04:11:07;;;;;;;;;9.00;9.00;;;;;16.45;72.10;101386.22;4979192;28;9182;-69
2023/09/16 04:13:36;;;;;;;;;8.67;8.67;;;;;16.46;71.87;101384.34;4993747;28;9842;-69
2023/09/16 04:16:02;;;;;;;;;9.67;9.67;;;;;16.46;71.65;101381.63;5010920;28;9292;-69
2023/09/16 04:18:29;;;;;;;;;11.67;8.67;;;;;16.46;71.66;101384.34;4993324;28;9247;-70
2023/09/16 04:20:56;;;;;;;;;8.00;8.00;;;;;16.44;71.94;101384.53;4993676;28;9360;-69
2023/09/16 04:23:23;;;;;;;;;11.00;9.33;;;;;16.44;72.23;101379.09;4977093;28;9093;-70
2023/09/16 04:25:55;;;;;;;;;12.33;7.67;;;;;16.44;72.26;101383.72;4993882;28;9265;-69
2023/09/16 04:28:23;;;;;;;;;10.00;8.00;;;;;16.42;72.38;101386.66;4992971;28;9637;-69
2023/09/16 04:30:50;;;;;;;;;6.33;6.33;;;;;16.42;72.06;101380.41;5011018;28;9270;-69
2023/09/16 04:33:20;;;;;;;;;10.00;8.67;;;;;16.41;72.43;101378.75;4993252;28;9028;-69
2023/09/16 04:35:49;;;;;;;;;10.67;10.67;;;;;16.38;72.40;101373.75;5010868;28;9064;-69
2023/09/16 04:38:16;;;;;;;;;9.33;8.00;;;;;16.36;72.59;101376.66;4992808;28;9074;-70
2023/09/16 04:40:44;;;;;;;;;12.33;9.00;;;;;16.34;72.38;101373.34;4993024;28;9074;-69
2023/09/16 04:43:14;;;;;;;;;10.33;10.00;;;;;16.32;72.67;101381.69;4993245;28;9138;-69
2023/09/16 04:45:44;;;;;;;;;8.33;8.00;;;;;16.30;72.87;101378.38;4993209;28;9081;-69
2023/09/16 04:48:15;;;;;;;;;10.33;9.67;;;;;16.28;72.68;101375.03;4977019;28;9270;-69
2023/09/16 04:50:46;;;;;;;;;9.00;8.33;;;;;16.27;72.72;101367.94;4993345;28;9258;-70
2023/09/16 04:53:13;;;;;;;;;12.00;10.00;;;;;16.26;73.08;101369.00;4992987;28;9416;-70
2023/09/16 04:55:41;;;;;;;;;13.33;12.00;;;;;16.24;73.18;101362.94;4992706;28;9231;-71
2023/09/16 04:58:08;;;;;;;;;11.00;11.00;;;;;16.21;72.93;101357.97;4992706;28;9356;-70
2023/09/16 05:00:36;;;;;;;;;9.33;9.33;;;;;16.20;73.54;101363.59;4992735;28;9377;-71
2023/09/16 05:03:05;;;;;;;;;8.67;7.33;;;;;16.17;73.21;101364.88;4992911;28;9395;-70
2023/09/16 05:05:34;;;;;;;;;14.67;10.00;;;;;16.13;73.53;101357.41;4976820;28;9242;-71
2023/09/16 05:08:03;;;;;;;;;16.25;12.00;;;;;16.13;73.67;101354.69;4992372;28;9301;-71
2023/09/16 05:10:29;;;;;;;;;11.33;9.33;;;;;16.10;73.84;101358.66;4992461;28;9378;-71
2023/09/16 05:12:56;;;;;;;;;15.00;13.50;;;;;16.10;73.68;101353.22;4992637;28;9227;-70
2023/09/16 05:15:27;;;;;;;;;11.00;11.00;;;;;16.10;73.98;101355.94;4992446;28;9390;-71
2023/09/16 05:17:53;;;;;;;;;11.75;9.25;;;;;16.11;73.71;101356.78;4976454;28;9392;-70
2023/09/16 05:20:20;;;;;;;;;12.33;9.67;;;;;16.09;74.13;101364.31;4992724;28;9505;-71
2023/09/16 05:22:48;;;;;;;;;12.33;12.33;;;;;16.09;73.93;101364.31;5010397;28;9429;-71
2023/09/16 05:25:15;;;;;;;;;14.00;12.00;;;;;16.09;73.63;101376.00;4992431;28;9392;-71
2023/09/16 05:27:42;;;;;;;;;10.67;10.67;;;;;16.09;74.18;101376.00;5009705;28;9250;-71
2023/09/16 05:30:09;;;;;;;;;16.00;10.00;;;;;16.13;74.14;101376.41;5010190;28;9457;-71
2023/09/16 05:32:37;;;;;;;;;11.33;11.33;;;;;16.14;74.36;101365.31;4992374;28;9347;-70
2023/09/16 05:35:04;;;;;;;;;12.33;10.00;;;;;16.15;74.31;101369.69;5010165;28;10026;-70
2023/09/16 05:37:30;;;;;;;;;10.33;8.33;;;;;16.16;74.63;101368.63;4996011;28;9390;-70
2023/09/16 05:39:57;;;;;;;;;10.67;10.33;;;;;16.17;74.54;101367.59;5013910;28;9155;-71
2023/09/16 05:42:23;;;;;;;;;8.00;7.67;;;;;16.20;74.94;101366.31;4996591;28;9240;-71
2023/09/16 05:44:50;;;;;;;;;15.67;12.67;;;;;16.20;74.77;101367.16;4996282;28;9330;-71
2023/09/16 05:47:17;;;;;;;;;12.00;12.00;;;;;16.20;74.57;101364.44;4996128;28;9320;-71
2023/09/16 05:49:44;;;;;;;;;11.33;8.33;;;;;16.23;74.97;101374.88;4996204;28;9320;-71
2023/09/16 05:52:12;;;;;;;;;8.33;8.00;;;;;16.24;75.17;101373.81;5012687;28;9328;-71
2023/09/16 05:54:39;;;;;;;;;11.00;11.00;;;;;16.26;75.04;101373.59;4996240;28;9225;-70
2023/09/16 05:57:06;;;;;;;;;10.33;10.33;;;;;16.25;75.15;101375.50;4995979;28;9979;-71
2023/09/16 05:59:32;;;;;;;;;8.67;8.67;;;;;16.26;75.42;101381.75;5013592;28;9258;-69
2023/09/16 06:02:01;;;;;;;;;9.67;9.67;;;;;16.26;75.29;101377.16;4995943;28;9376;-69
2023/09/16 06:04:30;;;;;;;;;6.67;6.33;;;;;16.29;75.79;101382.16;4996012;28;9324;-69
2023/09/16 06:06:57;;;;;;;;;7.33;7.33;;;;;16.30;75.95;101382.97;4995744;28;9312;-69
2023/09/16 06:09:23;;;;;;;;;9.00;7.67;;;;;16.34;75.72;101388.81;5040579;23;9318;-69
2023/09/16 06:11:50;;;;;;;;;8.67;8.67;;;;;16.36;75.72;101386.69;5015347;28;9309;-69
2023/09/16 06:14:17;;;;;;;;;9.00;9.00;;;;;16.38;75.66;101392.75;5032969;28;9411;-68
2023/09/16 06:16:44;;;;;;;;;9.00;9.00;;;;;16.41;75.93;101393.16;5031223;28;9264;-69
2023/09/16 06:19:11;;;;;;;;;9.00;9.00;;;;;16.45;75.67;101396.28;5032799;28;9345;-68
2023/09/16 06:21:37;;;;;;;;;7.00;7.00;;;;;16.48;75.92;101401.25;5015498;28;8981;-69
2023/09/16 06:24:04;;;;;;;;;10.67;10.00;;;;;16.49;75.50;101402.94;5031859;28;9159;-68
2023/09/16 06:26:31;;;;;;;;;8.00;8.00;;;;;16.55;76.07;101404.75;5013204;28;9319;-69
2023/09/16 06:28:58;;;;;;;;;9.00;8.00;;;;;16.59;75.44;101403.25;5014775;28;9140;-68
2023/09/16 06:31:24;;;;;;;;;7.67;7.67;;;;;16.62;75.71;101402.84;5031017;28;9317;-69
2023/09/16 06:33:52;;;;;;;;;8.33;7.33;;;;;16.65;76.07;101404.25;5015175;28;9237;-69
2023/09/16 06:36:18;;;;;;;;;8.00;5.00;;;;;16.68;75.94;101404.66;5031090;28;9144;-69
2023/09/16 06:38:45;;;;;;;;;8.33;8.33;;;;;16.72;75.74;101402.31;5014580;28;9276;-69
2023/09/16 06:41:11;;;;;;;;;7.67;7.67;;;;;16.76;75.78;101396.25;5012950;28;9706;-68
2023/09/16 06:43:39;;;;;;;;;6.00;5.00;;;;;16.80;75.66;101402.91;5014492;28;9147;-69
2023/09/16 06:46:07;;;;;;;;;10.00;10.00;;;;;16.84;76.13;101399.75;5013789;28;8919;-68
2023/09/16 06:48:34;;;;;;;;;7.00;7.00;;;;;16.88;75.98;101392.81;5029777;28;9171;-69
2023/09/16 06:51:00;;;;;;;;;8.67;7.00;;;;;16.92;76.07;101407.63;5015166;28;9063;-69
2023/09/16 06:53:28;;;;;;;;;10.75;7.75;;;;;16.95;76.27;101404.47;5032634;28;8925;-69
2023/09/16 06:55:54;;;;;;;;;10.00;9.00;;;;;16.99;75.72;101408.41;5031155;28;8895;-68
2023/09/16 06:58:21;;;;;;;;;8.00;7.33;;;;;17.05;75.67;101418.38;5000202;28;9091;-68
2023/09/16 07:00:48;;;;;;;;;11.00;11.00;;;;;17.10;75.80;101415.84;5012329;28;8926;-69
2023/09/16 07:03:15;;;;;;;;;5.33;5.33;;;;;17.14;75.51;101419.78;4994617;28;9213;-69
2023/09/16 07:05:48;;;;;;;;;8.00;8.00;;;;;17.18;75.34;101412.84;5012371;28;9076;-69
2023/09/16 07:08:17;;;;;;;;;10.00;7.00;;;;;17.19;74.87;101416.41;4994397;28;8954;-69
2023/09/16 07:10:44;;;;;;;;;6.33;5.67;;;;;17.22;74.64;101414.06;5010640;28;8986;-69
2023/09/16 07:13:10;;;;;;;;;10.00;10.00;;;;;17.27;74.59;101416.94;5017026;28;8901;-69
2023/09/16 07:15:37;;;;;;;;;10.33;9.00;;;;;17.30;74.58;101421.09;5031611;28;9067;-69
2023/09/16 07:18:04;;;;;;;;;9.33;9.00;;;;;17.34;74.50;101424.19;5009900;28;8926;-69
2023/09/16 07:20:30;;;;;;;;;9.00;9.00;;;;;17.34;74.31;101425.03;4994763;28;9004;-69
2023/09/16 07:22:57;;;;;;;;;8.00;7.00;;;;;17.38;74.16;101422.69;5012098;28;8980;-68
2023/09/16 07:25:23;;;;;;;;;11.25;10.00;;;;;17.43;73.97;101420.13;5011906;28;9633;-68
2023/09/16 07:27:50;;;;;;;;;13.00;11.33;;;;;17.45;73.86;101423.44;5011782;28;8827;-69
2023/09/16 07:30:21;;;;;;;;;9.00;8.67;;;;;17.50;74.00;101421.72;5013190;28;9061;-69
2023/09/16 07:32:47;;;;;;;;;4.67;4.67;;;;;17.53;73.97;101426.69;5011964;28;8992;-68
2023/09/16 07:35:14;;;;;;;;;6.00;5.00;;;;;17.59;73.91;101424.16;4994601;28;9670;-69
2023/09/16 07:37:40;;;;;;;;;14.33;13.33;;;;;17.59;73.48;101427.72;5010522;28;8827;-68
2023/09/16 07:40:07;;;;;;;;;9.00;9.00;;;;;17.62;73.56;101423.69;4993990;28;9073;-68
2023/09/16 07:42:35;;;;;;;;;9.00;7.00;;;;;17.68;73.41;101431.78;5010322;28;8896;-69
2023/09/16 07:45:03;;;;;;;;;9.33;8.33;;;;;17.74;73.19;101430.91;5012395;28;9651;-68
2023/09/16 07:47:29;;;;;;;;;6.00;6.00;;;;;17.78;73.13;101432.13;4994163;28;8959;-68
2023/09/16 07:49:56;;;;;;;;;6.67;6.67;;;;;17.81;73.22;101427.28;4994510;28;8845;-69
2023/09/16 07:52:23;;;;;;;;;5.50;5.50;;;;;17.85;73.18;101429.31;5011431;28;8942;-69
2023/09/16 07:54:49;;;;;;;;;9.00;9.00;;;;;17.89;72.92;101433.25;5011523;28;8870;-70
2023/09/16 07:57:16;;;;;;;;;10.00;9.75;;;;;17.94;73.03;101441.53;5011169;28;9082;-69
2023/09/16 07:59:42;;;;;;;;;6.75;6.75;;;;;17.97;72.99;101441.09;5010871;28;8832;-68
2023/09/16 08:02:09;;;;;;;;;6.00;6.00;;;;;18.02;72.94;101441.22;4994893;28;8839;-70
2023/09/16 08:04:35;;;;;;;;;8.33;8.00;;;;;18.05;73.15;101434.50;5011340;28;8896;-69
2023/09/16 08:07:02;;;;;;;;;17.00;17.00;;;;;18.10;73.02;101437.38;5010994;28;8927;-68
2023/09/16 08:09:29;;;;;;;;;11.50;9.75;;;;;18.13;72.70;101433.38;4993511;28;8936;-69
2023/09/16 08:11:55;;;;;;;;;9.25;9.00;;;;;18.18;72.76;101438.94;5011348;28;8846;-69
2023/09/16 08:14:22;;;;;;;;;11.25;10.75;;;;;18.20;72.56;101436.84;4993530;28;8823;-69
2023/09/16 08:16:48;;;;;;;;;8.00;8.00;;;;;18.27;72.27;101446.59;5011030;28;8835;-68
2023/09/16 08:19:16;;;;;;;;;8.75;8.75;;;;;18.32;72.17;101442.34;5012183;28;8909;-68
2023/09/16 08:21:43;;;;;;;;;12.50;11.00;;;;;18.40;71.83;101440.13;5009724;28;8831;-69
2023/09/16 08:24:09;;;;;;;;;10.00;10.00;;;;;18.47;71.60;101445.47;4993560;28;9529;-68
2023/09/16 08:26:36;;;;;;;;;12.33;11.67;;;;;18.50;71.56;101442.28;5010696;28;8835;-69
2023/09/16 08:29:02;;;;;;;;;14.67;13.33;;;;;18.55;70.91;101445.13;4993388;28;8970;-68
2023/09/16 08:31:29;;;;;;;;;13.25;13.25;;;;;18.60;70.74;101448.00;5010922;28;8912;-68
2023/09/16 08:33:59;;;;;;;;;10.50;10.50;;;;;18.69;70.35;101449.34;5012034;28;8912;-68
2023/09/16 08:36:26;;;;;;;;;8.50;8.50;;;;;18.74;70.44;101449.47;5010559;28;8957;-68
2023/09/16 08:38:52;;;;;;;;;15.75;14.75;;;;;18.77;70.42;101446.28;5010630;28;9532;-67
2023/09/16 08:41:45;;;;;;;;;11.00;10.25;;;;;18.83;70.30;101443.69;4976940;28;8850;-68
2023/09/16 08:44:13;;;;;;;;;14.25;12.50;;;;;18.87;70.27;101455.78;4985249;28;8842;-67
2023/09/16 08:46:50;;;;;;;;;11.25;10.25;;;;;18.85;69.81;101456.03;4992417;28;8835;-68
2023/09/16 08:49:21;;;;;;;;;7.50;7.50;;;;;18.93;69.74;101452.97;4993759;28;8882;-67
2023/09/16 08:51:50;;;;;;;;;5.00;5.00;;;;;19.00;69.61;101459.16;5010335;28;9559;-69
2023/09/16 08:54:20;;;;;;;;;7.75;7.25;;;;;19.08;69.78;101455.25;5010991;28;8851;-68
2023/09/16 08:56:48;;;;;;;;;9.00;9.00;;;;;19.17;69.66;101459.28;5010294;28;8811;-68
2023/09/16 08:59:15;;;;;;;;;11.00;11.00;;;;;19.23;69.54;101462.97;5010265;28;8832;-68
2023/09/16 09:01:45;;;;;;;;;4.75;4.00;;;;;19.26;69.28;101454.31;5010405;28;8840;-67
2023/09/16 09:04:13;;;;;;;;;9.00;8.50;;;;;19.26;68.81;101466.06;5010516;28;8922;-67
2023/09/16 09:06:41;;;;;;;;;8.50;7.50;;;;;19.36;68.68;101459.16;5011251;28;8836;-67
2023/09/16 09:09:08;;;;;;;;;5.75;5.75;;;;;19.42;68.17;101460.94;5009804;28;8870;-67
2023/09/16 09:11:35;;;;;;;;;10.50;10.50;;;;;19.50;67.50;101475.06;4975697;28;8834;-68
2023/09/16 09:14:03;;;;;;;;;11.25;9.75;;;;;19.54;66.83;101474.59;5010287;28;8831;-68
2023/09/16 09:16:32;;;;;;;;;6.75;6.75;;;;;19.49;66.44;101467.97;5009839;28;8953;-68
2023/09/16 09:19:01;;;;;;;;;7.50;6.75;;;;;19.53;66.32;101471.03;5009799;28;8815;-68
2023/09/16 09:21:28;;;;;;;;;8.00;8.00;;;;;19.63;66.11;101476.75;5011158;28;8824;-68
2023/09/16 09:23:57;;;;;;;;;5.00;5.00;;;;;19.66;66.21;101468.09;5010127;28;8879;-69
2023/09/16 09:26:24;;;;;;;;;6.25;6.25;;;;;19.69;66.12;101477.72;5025692;28;8979;-67
2023/09/16 09:28:51;;;;;;;;;9.75;8.00;;;;;19.79;65.30;101474.38;5009903;28;8834;-68
2023/09/16 09:31:19;;;;;;;;;6.25;6.00;;;;;19.81;64.84;101469.47;4992542;28;9229;-69
2023/09/16 09:33:48;;;;;;;;;11.25;9.00;;;;;19.87;64.50;101468.53;4992729;28;8921;-69
2023/09/16 09:36:16;;;;;;;;;9.25;6.00;;;;;19.91;64.28;101476.00;4992317;28;8839;-69
2023/09/16 09:38:45;;;;;;;;;9.50;8.00;;;;;19.92;63.73;101472.19;4998145;28;8829;-68
2023/09/16 09:41:13;;;;;;;;;5.75;5.75;;;;;19.89;62.78;101480.03;5029811;28;8887;-69
2023/09/16 09:43:39;;;;;;;;;7.75;7.50;;;;;19.92;62.59;101477.66;5029584;28;8848;-69
2023/09/16 09:46:06;;;;;;;;;10.00;9.00;;;;;19.95;62.23;101476.34;5029328;28;8853;-69
2023/09/16 09:48:36;;;;;;;;;7.50;7.50;;;;;19.95;62.78;101481.81;5029792;28;8829;-69
2023/09/16 09:51:03;;;;;;;;;7.50;7.50;;;;;19.94;63.03;101483.72;5029644;28;8936;-68
2023/09/16 09:53:32;;;;;;;;;7.50;7.50;;;;;20.02;62.59;101476.22;5029085;28;8850;-69
2023/09/16 09:55:59;;;;;;;;;9.75;8.00;;;;;20.04;62.93;101480.38;5029144;28;8855;-67
2023/09/16 09:58:25;;;;;;;;;8.75;7.50;;;;;20.06;63.09;101480.97;4995626;28;8976;-67
2023/09/16 10:00:52;;;;;;;;;9.50;8.50;;;;;20.07;63.02;101477.16;5011402;28;8837;-69
2023/09/16 10:03:21;;;;;;;;;14.50;13.75;;;;;20.14;62.76;101480.59;5029698;28;8825;-68
2023/09/16 10:05:48;;;;;;;;;9.75;9.75;;;;;20.14;62.81;101480.59;5029582;28;8851;-69
2023/09/16 10:08:15;;;;;;;;;10.50;10.00;;;;;20.17;63.00;101482.81;5011598;28;8868;-67
2023/09/16 10:10:45;;;;;;;;;10.75;10.75;;;;;20.19;63.04;101482.59;5011739;28;8853;-69
2023/09/16 10:13:12;;;;;;;;;12.50;11.00;;;;;20.25;63.12;101476.13;5001938;28;8831;-68
2023/09/16 10:15:39;;;;;;;;;11.25;10.00;;;;;20.28;63.52;101477.56;5010191;28;8830;-69
2023/09/16 10:18:07;;;;;;;;;12.00;11.25;;;;;20.34;63.65;101477.44;5009901;28;8832;-69
2023/09/16 10:20:38;;;;;;;;;11.75;11.75;;;;;20.42;63.43;101470.75;5010240;28;8844;-68
2023/09/16 10:23:05;;;;;;;;;10.75;10.75;;;;;20.45;63.50;101476.53;5012515;28;9563;-69
2023/09/16 10:25:34;;;;;;;;;8.75;8.75;;;;;20.46;63.49;101477.38;4995530;28;8831;-68
2023/09/16 10:28:07;;;;;;;;;11.50;8.75;;;;;20.47;63.05;101474.41;5014666;28;8961;-68
2023/09/16 10:30:36;;;;;;;;;11.25;10.75;;;;;20.53;62.82;101479.97;5032874;28;8944;-69
2023/09/16 10:33:04;;;;;;;;;9.75;9.25;;;;;20.56;62.88;101466.66;5014973;28;8832;-68
2023/09/16 10:35:33;;;;;;;;;6.75;6.75;;;;;20.63;62.94;101469.25;5015263;28;9015;-68
2023/09/16 10:38:02;;;;;;;;;6.00;6.00;;;;;20.65;62.88;101470.63;5032894;28;9273;-69
2023/09/16 10:40:30;;;;;;;;;8.75;8.75;;;;;20.63;62.50;101475.53;5015049;28;8837;-69
2023/09/16 10:42:58;;;;;;;;;5.00;5.00;;;;;20.64;62.78;101471.72;5014744;28;8911;-69
2023/09/16 10:45:26;;;;;;;;;7.25;6.00;;;;;20.69;62.94;101476.44;5016038;28;8823;-68
2023/09/16 10:47:53;;;;;;;;;8.25;8.25;;;;;20.74;62.59;101471.06;5012480;28;8835;-68
2023/09/16 10:50:24;;;;;;;;;9.00;5.50;;;;;20.83;61.93;101471.50;5011424;28;8823;-68
2023/09/16 10:52:54;;;;;;;;;10.25;10.00;;;;;20.81;61.44;101468.19;4995046;28;8836;-68
2023/09/16 10:55:41;;;;;;;;;9.00;9.00;;;;;20.82;60.95;101461.63;4994950;28;8851;-68
2023/09/16 10:58:21;;;;;;;;;5.75;5.75;;;;;20.86;61.01;101468.25;5012497;28;8815;-69
2023/09/16 11:00:53;;;;;;;;;9.75;8.75;;;;;20.89;61.18;101468.59;5013798;28;8816;-69
2023/09/16 11:03:27;;;;;;;;;9.75;7.75;;;;;20.87;60.76;101459.81;5012510;28;8847;-68
2023/09/16 11:05:54;;;;;;;;;9.50;9.00;;;;;20.99;60.54;101455.09;5012721;28;8827;-68
2023/09/16 11:08:20;;;;;;;;;8.50;8.00;;;;;21.11;59.85;101451.47;4994446;28;8828;-67
2023/09/16 11:10:48;;;;;;;;;7.50;7.50;;;;;21.16;59.67;101454.25;5012258;28;8849;-68
2023/09/16 11:13:15;;;;;;;;;9.25;8.25;;;;;21.13;59.49;101446.53;5012421;28;8815;-68
2023/09/16 11:15:42;;;;;;;;;6.50;5.50;;;;;21.16;59.34;101443.31;5013572;28;8839;-68
2023/09/16 11:18:10;;;;;;;;;7.00;7.00;;;;;21.29;58.52;101458.56;5011978;28;8953;-69
2023/09/16 11:20:37;;;;;;;;;6.00;5.25;;;;;21.36;58.01;101453.78;5012273;28;8988;-69
2023/09/16 11:23:05;;;;;;;;;8.50;8.50;;;;;21.39;57.69;101456.00;4994839;28;8828;-69
2023/09/16 11:25:37;;;;;;;;;9.00;6.50;;;;;21.45;57.85;101457.75;5012168;28;9559;-69
2023/09/16 11:28:07;;;;;;;;;11.00;10.25;;;;;21.35;58.59;101452.97;4993749;28;9594;-69
2023/09/16 11:30:36;;;;;;;;;5.50;5.50;;;;;21.33;58.85;101454.28;5011890;28;8823;-69